createdAt,value
2022-09-28T00:00:07.574Z,3.17
2022-09-28T00:02:35.769Z,3.23
2022-09-28T00:05:03.622Z,3.37
2022-09-28T00:07:31.328Z,3.20
2022-09-28T00:10:00.384Z,3.03
2022-09-28T00:12:29.783Z,3.20
2022-09-28T00:14:57.507Z,3.27
2022-09-28T00:17:26.484Z,3.63
2022-09-28T00:19:54.202Z,3.67
2022-09-28T00:22:21.895Z,3.33
2022-09-28T00:24:49.618Z,3.53
2022-09-28T00:27:18.653Z,3.60
2022-09-28T00:29:46.362Z,3.73
2022-09-28T00:32:15.567Z,3.50
2022-09-28T00:34:45.924Z,3.80
2022-09-28T00:37:15.253Z,3.43
2022-09-28T00:39:43.944Z,3.70
2022-09-28T00:42:15.173Z,3.77
2022-09-28T00:44:49.000Z,3.67
2022-09-28T00:47:38.329Z,3.93
2022-09-28T00:50:11.390Z,3.97
2022-09-28T00:52:42.904Z,4.67
2022-09-28T00:55:14.900Z,4.10
2022-09-28T00:57:46.774Z,3.90
2022-09-28T01:00:16.779Z,4.50
2022-09-28T01:02:45.469Z,4.50
2022-09-28T01:05:14.152Z,4.30
2022-09-28T01:07:43.670Z,4.73
2022-09-28T01:10:11.894Z,4.70
2022-09-28T01:12:39.610Z,4.77
2022-09-28T01:15:08.133Z,4.00
2022-09-28T01:17:50.153Z,4.10
2022-09-28T01:20:34.437Z,4.50
2022-09-28T01:23:37.039Z,4.60
2022-09-28T01:26:35.298Z,3.97
2022-09-28T01:29:12.227Z,4.40
2022-09-28T01:31:45.237Z,4.47
2022-09-28T01:34:16.941Z,3.93
2022-09-28T01:36:49.134Z,4.30
2022-09-28T01:39:21.139Z,4.20
2022-09-28T01:41:53.205Z,3.80
2022-09-28T01:44:24.066Z,4.10
2022-09-28T01:46:53.347Z,3.47
2022-09-28T01:49:23.865Z,3.77
2022-09-28T01:51:56.440Z,3.80
2022-09-28T01:54:29.806Z,4.07
2022-09-28T01:57:06.392Z,3.47
2022-09-28T01:59:37.609Z,3.60
2022-09-28T02:02:10.581Z,4.10
2022-09-28T02:04:42.277Z,4.03
2022-09-28T02:07:13.901Z,3.93
2022-09-28T02:09:47.166Z,3.80
2022-09-28T02:12:21.147Z,3.60
2022-09-28T02:14:51.144Z,3.77
2022-09-28T02:17:19.028Z,3.77
2022-09-28T02:19:46.807Z,4.20
2022-09-28T02:22:23.252Z,3.90
2022-09-28T02:24:57.579Z,3.70
2022-09-28T02:27:35.513Z,4.07
2022-09-28T02:30:04.596Z,4.23
2022-09-28T02:32:34.293Z,3.70
2022-09-28T02:35:02.607Z,3.43
2022-09-28T02:37:30.358Z,4.03
2022-09-28T02:39:58.071Z,4.00
2022-09-28T02:42:32.091Z,3.60
2022-09-28T02:45:12.991Z,4.03
2022-09-28T02:47:57.352Z,4.50
2022-09-28T02:50:35.487Z,3.90
2022-09-28T02:53:33.399Z,3.90
2022-09-28T02:56:18.081Z,3.90
2022-09-28T02:58:57.436Z,3.30
2022-09-28T03:01:32.159Z,3.80
2022-09-28T03:04:07.483Z,3.83
2022-09-28T03:06:42.722Z,4.23
2022-09-28T03:09:16.546Z,4.03
2022-09-28T03:11:48.565Z,3.67
2022-09-28T03:14:18.152Z,3.80
2022-09-28T03:16:46.711Z,4.20
2022-09-28T03:19:15.619Z,3.97
2022-09-28T03:21:43.408Z,4.13
2022-09-28T03:24:11.367Z,4.00
2022-09-28T03:26:39.980Z,3.97
2022-09-28T03:29:07.777Z,3.80
2022-09-28T03:31:36.900Z,4.03
2022-09-28T03:34:05.006Z,3.80
2022-09-28T03:36:32.726Z,3.97
2022-09-28T03:39:00.556Z,4.40
2022-09-28T03:41:28.839Z,3.87
2022-09-28T03:43:56.807Z,3.63
2022-09-28T03:46:24.518Z,3.80
2022-09-28T03:48:53.569Z,4.23
2022-09-28T03:51:21.317Z,4.70
2022-09-28T03:53:49.051Z,4.40
2022-09-28T03:56:17.454Z,4.37
2022-09-28T03:58:45.233Z,3.27
2022-09-28T04:01:17.660Z,3.57
2022-09-28T04:03:46.373Z,3.90
2022-09-28T04:06:16.125Z,4.30
2022-09-28T04:08:44.028Z,3.90
2022-09-28T04:11:11.754Z,4.23
2022-09-28T04:13:39.505Z,4.47
2022-09-28T04:16:07.756Z,4.37
2022-09-28T04:18:35.548Z,4.50
2022-09-28T04:21:06.726Z,6.22
2022-09-28T04:23:37.015Z,5.93
2022-09-28T04:26:05.751Z,5.77
2022-09-28T04:28:51.343Z,4.30
2022-09-28T04:31:21.309Z,4.07
2022-09-28T04:33:49.259Z,4.57
2022-09-28T04:36:17.898Z,4.60
2022-09-28T04:38:53.178Z,4.27
2022-09-28T04:41:22.774Z,4.30
2022-09-28T04:43:50.908Z,5.10
2022-09-28T04:46:19.293Z,5.13
2022-09-28T04:48:47.407Z,5.10
2022-09-28T04:51:15.302Z,4.67
2022-09-28T04:53:43.038Z,4.60
2022-09-28T04:56:14.738Z,4.27
2022-09-28T04:58:43.150Z,4.70
2022-09-28T05:01:13.522Z,4.93
2022-09-28T05:03:41.488Z,4.57
2022-09-28T05:06:09.883Z,5.07
2022-09-28T05:08:37.597Z,4.97
2022-09-28T05:11:07.636Z,4.97
2022-09-28T05:13:41.745Z,4.60
2022-09-28T05:16:10.918Z,4.60
2022-09-28T05:18:38.721Z,4.47
2022-09-28T05:21:10.651Z,4.00
2022-09-28T05:23:38.375Z,4.20
2022-09-28T05:26:06.243Z,4.33
2022-09-28T05:28:35.911Z,4.30
2022-09-28T05:31:04.924Z,4.27
2022-09-28T05:33:33.999Z,4.40
2022-09-28T05:36:02.202Z,4.67
2022-09-28T05:38:30.382Z,4.47
2022-09-28T05:40:58.387Z,4.63
2022-09-28T05:43:26.505Z,4.73
2022-09-28T05:45:56.022Z,4.97
2022-09-28T05:48:23.878Z,5.33
2022-09-28T05:50:52.309Z,5.50
2022-09-28T05:53:20.450Z,5.23
2022-09-28T05:55:48.277Z,5.37
2022-09-28T05:58:16.072Z,5.40
2022-09-28T06:00:44.332Z,5.13
2022-09-28T06:03:15.119Z,4.97
2022-09-28T06:05:43.056Z,5.20
2022-09-28T06:08:11.640Z,4.93
2022-09-28T06:10:40.084Z,5.10
2022-09-28T06:13:08.608Z,5.13
2022-09-28T06:15:38.050Z,5.23
2022-09-28T06:18:07.453Z,4.70
2022-09-28T06:20:38.059Z,4.13
2022-09-28T06:23:05.841Z,3.93
2022-09-28T06:25:33.596Z,3.87
2022-09-28T06:28:03.604Z,4.10
2022-09-28T06:30:34.953Z,4.07
2022-09-28T06:33:03.576Z,4.67
2022-09-28T06:35:32.298Z,3.60
2022-09-28T06:38:01.722Z,4.00
2022-09-28T06:40:29.977Z,3.70
2022-09-28T06:42:58.898Z,3.50
2022-09-28T06:45:28.194Z,3.83
2022-09-28T06:47:58.365Z,3.50
2022-09-28T06:50:27.756Z,3.47
2022-09-28T06:52:57.135Z,4.07
2022-09-28T06:55:27.046Z,3.27
2022-09-28T06:58:02.011Z,3.67
2022-09-28T07:00:32.870Z,3.47
2022-09-28T07:03:00.731Z,3.60
2022-09-28T07:05:29.934Z,3.17
2022-09-28T07:07:58.486Z,3.73
2022-09-28T07:10:29.385Z,3.20
2022-09-28T07:12:58.052Z,3.17
2022-09-28T07:15:27.404Z,3.33
2022-09-28T07:18:02.431Z,2.90
2022-09-28T07:20:31.958Z,2.97
2022-09-28T07:23:15.745Z,2.83
2022-09-28T07:25:49.597Z,3.03
2022-09-28T07:28:18.138Z,3.43
2022-09-28T07:30:45.909Z,3.13
2022-09-28T07:33:15.939Z,3.27
2022-09-28T07:35:52.196Z,3.00
2022-09-28T07:38:20.386Z,2.90
2022-09-28T07:41:07.880Z,3.00
2022-09-28T07:43:35.733Z,3.00
2022-09-28T07:46:03.515Z,2.50
2022-09-28T07:48:37.803Z,2.20
2022-09-28T07:51:05.944Z,2.83
2022-09-28T07:53:33.738Z,2.37
2022-09-28T07:56:07.228Z,2.20
2022-09-28T07:58:36.064Z,2.20
2022-09-28T08:01:09.010Z,2.40
2022-09-28T08:03:37.903Z,2.83
2022-09-28T08:06:07.582Z,2.30
2022-09-28T08:08:35.721Z,2.13
2022-09-28T08:11:08.396Z,2.60
2022-09-28T08:13:36.211Z,2.63
2022-09-28T08:16:05.191Z,2.83
2022-09-28T08:18:33.040Z,3.07
2022-09-28T08:21:18.236Z,2.57
2022-09-28T08:23:46.011Z,2.60
2022-09-28T08:26:15.759Z,2.53
2022-09-28T08:28:45.106Z,4.17
2022-09-28T08:31:13.147Z,3.90
2022-09-28T08:33:42.255Z,3.67
2022-09-28T08:36:11.260Z,3.00
2022-09-28T08:38:39.062Z,3.10
2022-09-28T08:41:15.535Z,3.10
2022-09-28T08:44:10.184Z,4.60
2022-09-28T08:46:41.877Z,4.00
2022-09-28T08:49:25.049Z,3.80
2022-09-28T08:52:00.908Z,3.00
2022-09-28T08:54:35.757Z,3.40
2022-09-28T08:57:07.366Z,4.00
2022-09-28T08:59:46.516Z,4.30
2022-09-28T09:02:19.209Z,3.97
2022-09-28T09:04:47.167Z,3.47
2022-09-28T09:07:45.825Z,3.53
2022-09-28T09:10:28.562Z,3.47
2022-09-28T09:13:04.227Z,3.60
2022-09-28T09:15:48.871Z,3.50
2022-09-28T09:18:27.054Z,3.13
2022-09-28T09:20:57.674Z,3.00
2022-09-28T09:23:35.733Z,3.10
2022-09-28T09:26:12.473Z,3.00
2022-09-28T09:29:01.532Z,2.80
2022-09-28T09:31:44.818Z,2.60
2022-09-28T09:34:27.062Z,2.93
2022-09-28T09:37:19.722Z,3.30
2022-09-28T09:40:03.795Z,2.97
2022-09-28T09:42:44.473Z,3.37
2022-09-28T09:45:35.694Z,3.30
2022-09-28T09:48:11.059Z,2.73
2022-09-28T09:50:45.812Z,2.67
2022-09-28T09:53:18.867Z,2.40
2022-09-28T09:55:50.397Z,2.73
2022-09-28T09:58:21.764Z,2.03
2022-09-28T10:00:53.087Z,2.00
2022-09-28T10:03:25.130Z,2.10
2022-09-28T10:05:59.064Z,2.20
2022-09-28T10:08:27.934Z,2.00
2022-09-28T10:11:08.339Z,2.00
2022-09-28T10:13:36.186Z,2.07
2022-09-28T10:16:04.164Z,2.10
2022-09-28T10:18:34.268Z,2.00
2022-09-28T10:21:02.022Z,2.27
2022-09-28T10:23:33.933Z,2.20
2022-09-28T10:26:05.509Z,2.80
2022-09-28T10:28:40.899Z,2.80
2022-09-28T10:31:41.743Z,2.40
2022-09-28T10:34:14.791Z,2.63
2022-09-28T10:36:50.625Z,2.57
2022-09-28T10:39:29.664Z,2.57
2022-09-28T10:41:59.772Z,2.80
2022-09-28T10:44:28.434Z,2.87
2022-09-28T10:47:01.668Z,2.70
2022-09-28T10:49:44.368Z,2.70
2022-09-28T10:52:33.648Z,2.70
2022-09-28T10:55:01.426Z,2.73
2022-09-28T10:57:30.411Z,2.70
2022-09-28T10:59:58.124Z,2.70
2022-09-28T11:02:33.485Z,2.80
2022-09-28T11:05:07.331Z,2.60
2022-09-28T11:07:46.454Z,3.10
2022-09-28T11:10:22.554Z,3.30
2022-09-28T11:12:51.613Z,3.20
2022-09-28T11:15:21.428Z,2.90
2022-09-28T11:17:49.658Z,2.93
2022-09-28T11:20:43.552Z,3.00
2022-09-28T11:23:20.482Z,3.03
2022-09-28T11:26:00.325Z,3.33
2022-09-28T11:28:34.279Z,3.17
2022-09-28T11:31:03.097Z,3.10
2022-09-28T11:33:33.780Z,2.83
2022-09-28T11:36:23.574Z,3.10
2022-09-28T11:39:03.412Z,3.20
2022-09-28T11:41:48.446Z,3.10
2022-09-28T11:44:44.555Z,3.20
2022-09-28T11:47:35.590Z,3.63
2022-09-28T11:50:08.923Z,3.27
2022-09-28T11:52:47.191Z,3.00
2022-09-28T11:55:22.697Z,2.67
2022-09-28T11:57:56.968Z,2.83
2022-09-28T12:00:25.420Z,3.17
2022-09-28T12:02:58.977Z,2.80
2022-09-28T12:05:29.779Z,3.00
2022-09-28T12:08:04.835Z,2.73
2022-09-28T12:10:43.356Z,3.30
2022-09-28T12:13:17.507Z,3.03
2022-09-28T12:18:45.074Z,3.10
2022-09-28T12:21:28.733Z,2.23
2022-09-28T12:24:06.260Z,2.40
2022-09-28T12:26:41.216Z,2.10
2022-09-28T12:29:14.707Z,2.37
2022-09-28T12:31:53.076Z,2.53
2022-09-28T12:34:21.588Z,2.03
2022-09-28T12:36:58.802Z,2.50
2022-09-28T12:39:57.845Z,2.43
2022-09-28T12:42:46.093Z,2.40
2022-09-28T12:45:38.462Z,2.60
2022-09-28T12:48:40.731Z,2.40
2022-09-28T12:51:21.902Z,2.43
2022-09-28T12:54:09.193Z,2.67
2022-09-28T12:56:55.471Z,2.87
2022-09-28T12:59:27.447Z,2.93
2022-09-28T13:02:21.964Z,2.80
2022-09-28T13:05:09.094Z,2.50
2022-09-28T13:07:45.112Z,2.80
2022-09-28T13:10:21.701Z,2.87
2022-09-28T13:13:01.570Z,2.77
2022-09-28T13:15:45.892Z,2.37
2022-09-28T13:18:22.713Z,2.60
2022-09-28T13:21:04.862Z,1.60
2022-09-28T13:23:38.584Z,1.67
2022-09-28T13:26:14.875Z,2.17
2022-09-28T13:28:46.899Z,1.50
2022-09-28T13:31:21.101Z,1.60
2022-09-28T13:33:50.349Z,1.43
2022-09-28T13:36:47.204Z,1.90
2022-09-28T13:39:52.716Z,1.57
2022-09-28T13:42:37.687Z,1.50
2022-09-28T13:45:24.509Z,1.60
2022-09-28T13:48:21.180Z,1.80
2022-09-28T13:51:08.603Z,1.87
2022-09-28T13:53:48.153Z,1.50
2022-09-28T13:56:27.696Z,1.60
2022-09-28T13:58:59.440Z,1.63
2022-09-28T14:01:33.063Z,1.87
2022-09-28T14:04:16.455Z,1.77
2022-09-28T14:06:48.732Z,1.53
2022-09-28T14:09:51.415Z,1.97
2022-09-28T14:12:31.462Z,1.60
2022-09-28T14:14:59.530Z,2.30
2022-09-28T14:18:00.022Z,3.80
2022-09-28T14:20:31.363Z,2.00
2022-09-28T14:23:31.498Z,1.50
2022-09-28T14:26:29.160Z,1.63
2022-09-28T14:29:10.046Z,1.40
2022-09-28T14:31:43.345Z,1.40
2022-09-28T14:34:32.708Z,1.57
2022-09-28T14:37:18.896Z,1.50
2022-09-28T14:40:05.565Z,1.50
2022-09-28T14:42:33.778Z,1.60
2022-09-28T14:45:36.164Z,1.60
2022-09-28T14:48:16.178Z,1.30
2022-09-28T14:50:47.204Z,1.40
2022-09-28T14:53:20.710Z,1.40
2022-09-28T14:55:55.386Z,1.57
2022-09-28T14:58:26.605Z,1.40
2022-09-28T15:01:02.040Z,1.37
2022-09-28T15:03:34.087Z,1.00
2022-09-28T15:06:03.131Z,1.00
2022-09-28T15:08:38.767Z,0.90
2022-09-28T15:11:11.846Z,1.17
2022-09-28T15:13:40.782Z,1.20
2022-09-28T15:16:11.717Z,1.40
2022-09-28T15:19:02.732Z,1.20
2022-09-28T15:21:37.942Z,1.30
2022-09-28T15:24:27.750Z,1.10
2022-09-28T15:26:56.741Z,1.10
2022-09-28T15:29:26.775Z,1.47
2022-09-28T15:31:54.830Z,1.30
2022-09-28T15:34:47.221Z,1.27
2022-09-28T15:37:18.992Z,1.20
2022-09-28T15:39:48.100Z,1.40
2022-09-28T15:42:17.604Z,1.30
2022-09-28T15:45:02.516Z,1.20
2022-09-28T15:47:31.840Z,1.20
2022-09-28T15:50:02.746Z,1.10
2022-09-28T15:52:37.050Z,1.20
2022-09-28T15:55:16.986Z,1.60
2022-09-28T15:57:45.061Z,1.50
2022-09-28T16:00:26.064Z,1.70
2022-09-28T16:03:06.340Z,1.80
2022-09-28T16:05:39.225Z,1.80
2022-09-28T16:08:21.240Z,2.00
2022-09-28T16:10:57.539Z,1.97
2022-09-28T16:13:25.501Z,2.33
2022-09-28T16:15:59.704Z,1.60
2022-09-28T16:18:30.153Z,1.53
2022-09-28T16:21:21.227Z,1.43
2022-09-28T16:23:55.659Z,1.30
2022-09-28T16:26:31.877Z,1.30
2022-09-28T16:29:00.204Z,1.80
2022-09-28T16:31:34.330Z,1.67
2022-09-28T16:34:11.873Z,2.00
2022-09-28T16:36:45.505Z,1.50
2022-09-28T16:39:16.376Z,1.93
2022-09-28T16:41:47.980Z,1.50
2022-09-28T16:44:23.406Z,1.67
2022-09-28T16:46:53.869Z,1.60
2022-09-28T16:49:23.825Z,1.70
2022-09-28T16:51:51.905Z,1.50
2022-09-28T16:54:40.271Z,2.17
2022-09-28T16:57:11.874Z,1.80
2022-09-28T16:59:39.891Z,2.27
2022-09-28T17:02:42.196Z,2.37
2022-09-28T17:05:07.288Z,2.53
2022-09-28T17:07:35.495Z,2.27
2022-09-28T17:10:10.070Z,2.20
2022-09-28T17:12:37.859Z,2.50
2022-09-28T17:15:06.302Z,2.27
2022-09-28T17:17:34.019Z,3.10
2022-09-28T17:20:02.619Z,3.53
2022-09-28T17:22:30.360Z,8.23
2022-09-28T17:24:58.097Z,10.53
2022-09-28T17:27:27.230Z,7.33
2022-09-28T17:29:55.042Z,8.13
2022-09-28T17:32:22.800Z,8.03
2022-09-28T17:35:00.701Z,5.80
2022-09-28T17:37:36.238Z,4.50
2022-09-28T17:40:08.429Z,3.70
2022-09-28T17:42:37.525Z,3.83
2022-09-28T17:45:05.899Z,2.90
2022-09-28T17:47:34.475Z,3.00
2022-09-28T17:50:02.439Z,3.40
2022-09-28T17:52:30.141Z,3.60
2022-09-28T17:54:57.870Z,3.07
2022-09-28T17:57:25.888Z,3.07
2022-09-28T17:59:54.895Z,4.57
2022-09-28T18:02:23.787Z,3.50
2022-09-28T18:04:52.774Z,3.23
2022-09-28T18:07:20.686Z,3.40
2022-09-28T18:09:48.745Z,3.87
2022-09-28T18:12:16.708Z,3.70
2022-09-28T18:14:44.757Z,4.00
2022-09-28T18:17:14.225Z,3.90
2022-09-28T18:19:42.195Z,3.63
2022-09-28T18:22:10.193Z,3.57
2022-09-28T18:24:38.259Z,3.43
2022-09-28T18:27:06.355Z,3.60
2022-09-28T18:29:34.407Z,4.43
2022-09-28T18:32:03.186Z,3.70
2022-09-28T18:34:35.558Z,4.30
2022-09-28T18:37:03.511Z,4.53
2022-09-28T18:39:31.471Z,4.20
2022-09-28T18:41:59.416Z,3.70
2022-09-28T18:44:27.356Z,3.37
2022-09-28T18:46:55.379Z,3.70
2022-09-28T18:49:24.004Z,3.70
2022-09-28T18:51:53.425Z,3.77
2022-09-28T18:54:21.313Z,3.33
2022-09-28T18:56:51.176Z,3.30
2022-09-28T18:59:19.175Z,3.80
2022-09-28T19:01:47.203Z,3.90
2022-09-28T19:04:15.271Z,3.40
2022-09-28T19:06:44.684Z,3.70
2022-09-28T19:09:13.966Z,4.07
2022-09-28T19:11:41.922Z,4.27
2022-09-28T19:14:11.044Z,4.37
2022-09-28T19:16:38.915Z,4.30
2022-09-28T19:19:06.701Z,4.90
2022-09-28T19:21:34.503Z,4.63
2022-09-28T19:24:03.154Z,4.50
2022-09-28T19:26:32.961Z,4.27
2022-09-28T19:29:02.721Z,4.47
2022-09-28T19:31:31.345Z,3.90
2022-09-28T19:33:59.372Z,4.30
2022-09-28T19:36:28.559Z,4.53
2022-09-28T19:38:57.944Z,3.63
2022-09-28T19:41:45.642Z,3.87
2022-09-28T19:44:24.296Z,3.83
2022-09-28T19:46:53.574Z,3.63
2022-09-28T19:49:22.622Z,4.00
2022-09-28T19:52:12.175Z,3.70
2022-09-28T19:54:41.162Z,4.23
2022-09-28T19:57:09.215Z,4.40
2022-09-28T19:59:39.219Z,4.00
2022-09-28T20:02:08.440Z,3.87
2022-09-28T20:04:36.293Z,3.30
2022-09-28T20:07:05.246Z,3.50
2022-09-28T20:09:33.073Z,4.47
2022-09-28T20:12:01.035Z,5.00
2022-09-28T20:14:33.129Z,4.57
2022-09-28T20:17:05.498Z,4.70
2022-09-28T20:19:33.626Z,4.20
2022-09-28T20:22:02.758Z,4.37
2022-09-28T20:24:30.979Z,4.70
2022-09-28T20:26:58.705Z,4.77
2022-09-28T20:29:26.685Z,4.73
2022-09-28T20:31:54.463Z,4.53
2022-09-28T20:34:23.489Z,4.60
2022-09-28T20:36:51.218Z,4.40
2022-09-28T20:39:19.120Z,3.77
2022-09-28T20:41:49.130Z,4.20
2022-09-28T20:44:16.997Z,4.30
2022-09-28T20:46:44.977Z,4.53
2022-09-28T20:49:12.806Z,4.30
2022-09-28T20:51:41.888Z,4.17
2022-09-28T20:54:09.690Z,4.10
2022-09-28T20:56:38.915Z,4.80
2022-09-28T20:59:10.504Z,4.20
2022-09-28T21:01:38.459Z,3.90
2022-09-28T21:04:07.682Z,3.93
2022-09-28T21:06:37.813Z,4.37
2022-09-28T21:09:08.427Z,4.00
2022-09-28T21:11:36.761Z,4.47
2022-09-28T21:14:06.715Z,4.70
2022-09-28T21:16:35.837Z,5.23
2022-09-28T21:19:04.080Z,5.40
2022-09-28T21:21:31.969Z,4.40
2022-09-28T21:23:59.736Z,4.57
2022-09-28T21:26:31.237Z,4.87
2022-09-28T21:29:00.644Z,4.63
2022-09-28T21:31:30.774Z,3.87
2022-09-28T21:33:59.301Z,4.17
2022-09-28T21:36:27.078Z,4.27
2022-09-28T21:38:55.529Z,3.93
2022-09-28T21:41:23.450Z,4.23
2022-09-28T21:43:52.653Z,4.00
2022-09-28T21:46:20.531Z,4.30
2022-09-28T21:48:52.552Z,4.40
2022-09-28T21:51:20.866Z,4.50
2022-09-28T21:53:49.441Z,4.27
2022-09-28T21:56:17.499Z,4.03
2022-09-28T21:58:45.248Z,4.00
2022-09-28T22:01:18.324Z,4.17
2022-09-28T22:03:49.185Z,4.40
2022-09-28T22:06:18.768Z,4.70
2022-09-28T22:08:46.890Z,4.50
2022-09-28T22:11:17.861Z,4.20
2022-09-28T22:13:47.314Z,4.43
2022-09-28T22:16:18.235Z,4.70
2022-09-28T22:18:46.243Z,4.60
2022-09-28T22:21:15.518Z,4.03
2022-09-28T22:23:43.607Z,4.70
2022-09-28T22:26:13.106Z,4.93
2022-09-28T22:28:46.290Z,4.20
2022-09-28T22:31:16.900Z,4.90
2022-09-28T22:33:44.916Z,4.40
2022-09-28T22:36:16.959Z,4.60
2022-09-28T22:38:45.002Z,4.70
2022-09-28T22:41:15.846Z,4.63
2022-09-28T22:43:44.459Z,4.20
2022-09-28T22:46:14.260Z,4.70
2022-09-28T22:48:47.136Z,4.03
2022-09-28T22:51:15.564Z,4.10
2022-09-28T22:53:43.479Z,4.20
2022-09-28T22:56:15.951Z,5.83
2022-09-28T22:58:46.237Z,4.90
2022-09-28T23:01:17.191Z,4.50
2022-09-28T23:03:46.705Z,4.93
2022-09-28T23:06:16.580Z,4.03
2022-09-28T23:08:45.433Z,3.70
2022-09-28T23:11:13.187Z,4.00
2022-09-28T23:13:40.906Z,3.30
2022-09-28T23:16:12.400Z,3.70
2022-09-28T23:18:41.716Z,4.20
2022-09-28T23:21:15.128Z,3.80
2022-09-28T23:23:43.120Z,4.20
2022-09-28T23:26:13.934Z,4.60
2022-09-28T23:28:42.120Z,4.03
2022-09-28T23:31:11.068Z,4.07
2022-09-28T23:33:39.038Z,3.80
2022-09-28T23:36:07.746Z,3.80
2022-09-28T23:38:37.223Z,3.70
2022-09-28T23:41:05.486Z,3.90
2022-09-28T23:43:33.610Z,4.30
2022-09-28T23:46:01.402Z,4.23
2022-09-28T23:48:29.260Z,3.70
2022-09-28T23:50:56.978Z,3.70
2022-09-28T23:53:24.733Z,3.70
2022-09-28T23:55:53.787Z,3.97
2022-09-28T23:58:21.584Z,3.50
